METAR Data
IDs: Format: Raw Decoded Include TAF

Data at: 0917 UTC 10 Dec 2022

METAR for:KOTH (North Bend/SW Oregon, OR, US)
Text:KOTH 100856Z AUTO 15017G25KT 10SM -RA BKN045 BKN055 OVC075 08/07 A2942 RMK AO2 PK WND 15028/0800 SLP960 P0005 60010 T00830067 58025
Temperature: 8.3°C ( 47°F)
Dewpoint: 6.7°C ( 44°F) [RH = 90%]
Pressure (altimeter):29.42 inches Hg ( 996.4 mb) [Sea level pressure: 996.0 mb]
Winds:from the SSE (150 degrees) at 20 MPH (17 knots; 8.7 m/s) gusting to 29 MPH (25 knots; 12.9 m/s)
Visibility:10 or more sm (16+ km)
Ceiling:4500 feet AGL
Clouds: broken clouds at 4500 feet AGL, broken clouds at 5500 feet AGL, overcast cloud deck at 7500 feet AGL
Weather:-RA (light rain)
QC Flag:automated observation with no human augmentation
Text:KOTH 100756Z AUTO 16021G26KT 10SM -RA BKN035 OVC043 09/07 A2946 RMK AO2 PK WND 16032/0746 RAB02 SLP974 P0005 T00890072 401000050
Temperature: 8.9°C ( 48°F)
Dewpoint: 7.2°C ( 45°F) [RH = 89%]
Pressure (altimeter):29.46 inches Hg ( 997.7 mb) [Sea level pressure: 997.4 mb]
Winds:from the SSE (160 degrees) at 24 MPH (21 knots; 10.8 m/s) gusting to 30 MPH (26 knots; 13.4 m/s)
Visibility:10 or more sm (16+ km)
Ceiling:3500 feet AGL
Clouds: broken clouds at 3500 feet AGL, overcast cloud deck at 4300 feet AGL
Weather:-RA (light rain)
QC Flag:automated observation with no human augmentation

METAR for:KAST (Astoria Rgnl, OR, US)
Text:KAST 100855Z AUTO 19027G38KT 8SM -RA SCT017 BKN022 OVC035 10/08 A2927 RMK AO2 PK WND 19046/0839 SLP911 P0003 60011 T01000078 58004
Temperature: 10.0°C ( 50°F)
Dewpoint: 7.8°C ( 46°F) [RH = 86%]
Pressure (altimeter):29.27 inches Hg ( 991.3 mb) [Sea level pressure: 991.1 mb]
Winds:from the S (190 degrees) at 31 MPH (27 knots; 13.9 m/s) gusting to 44 MPH (38 knots; 19.5 m/s)
Visibility: 8 sm ( 13 km)
Ceiling:2200 feet AGL
Clouds: scattered clouds at 1700 feet AGL, broken clouds at 2200 feet AGL, overcast cloud deck at 3500 feet AGL
Weather:-RA (light rain)
QC Flag:automated observation with no human augmentation
Text:KAST 100755Z AUTO 19018G44KT 5SM -RA BKN020 BKN028 OVC038 11/08 A2928 RMK AO2 PK WND 20044/0750 SLP913 P0003 T01060078 401060022
Temperature: 10.6°C ( 51°F)
Dewpoint: 7.8°C ( 46°F) [RH = 83%]
Pressure (altimeter):29.28 inches Hg ( 991.6 mb) [Sea level pressure: 991.3 mb]
Winds:from the S (190 degrees) at 21 MPH (18 knots; 9.3 m/s) gusting to 51 MPH (44 knots; 22.6 m/s)
Visibility: 5 sm ( 8 km)
Ceiling:2000 feet AGL
Clouds: broken clouds at 2000 feet AGL, broken clouds at 2800 feet AGL, overcast cloud deck at 3800 feet AGL
Weather:-RA (light rain)
QC Flag:automated observation with no human augmentation

METAR for:KPDX (Portland Intl Arpt, OR, US)
Text:KPDX 100853Z 13012KT 10SM OVC043 06/03 A2942 RMK AO2 RAB01E18 SLP962 P0000 60001 T00610033 58008
Temperature: 6.1°C ( 43°F)
Dewpoint: 3.3°C ( 38°F) [RH = 82%]
Pressure (altimeter):29.42 inches Hg ( 996.4 mb) [Sea level pressure: 996.2 mb]
Winds:from the SE (130 degrees) at 14 MPH (12 knots; 6.2 m/s)
Visibility:10 or more sm (16+ km)
Ceiling:4300 feet AGL
Clouds: overcast cloud deck at 4300 feet AGL
Text:KPDX 100753Z 12012KT 10SM BKN040 OVC045 06/03 A2945 RMK AO2 RAE24 SLP971 P0000 T00610033 400670044
Temperature: 6.1°C ( 43°F)
Dewpoint: 3.3°C ( 38°F) [RH = 82%]
Pressure (altimeter):29.45 inches Hg ( 997.4 mb) [Sea level pressure: 997.1 mb]
Winds:from the ESE (120 degrees) at 14 MPH (12 knots; 6.2 m/s)
Visibility:10 or more sm (16+ km)
Ceiling:4000 feet AGL
Clouds: broken clouds at 4000 feet AGL, overcast cloud deck at 4500 feet AGL

METAR for:KDLS (The Dalles Muni, OR, US)
Text:KDLS 100853Z AUTO 20003KT 10SM SCT060 BKN070 OVC090 03/01 A2954 RMK AO2 SLP004 60001 T00330011 58018
Temperature: 3.3°C ( 38°F)
Dewpoint: 1.1°C ( 34°F) [RH = 85%]
Pressure (altimeter):29.54 inches Hg (1000.4 mb) [Sea level pressure: 1000.4 mb]
Winds:from the SSW (200 degrees) at 3 MPH (3 knots; 1.5 m/s)
Visibility:10 or more sm (16+ km)
Ceiling:7000 feet AGL
Clouds: scattered clouds at 6000 feet AGL, broken clouds at 7000 feet AGL, overcast cloud deck at 9000 feet AGL
QC Flag:automated observation with no human augmentation
Text:KDLS 100753Z AUTO 00000KT 10SM OVC085 03/01 A2955 RMK AO2 SLP009 T00330006 400501044
Temperature: 3.3°C ( 38°F)
Dewpoint: 0.6°C ( 33°F) [RH = 82%]
Pressure (altimeter):29.55 inches Hg (1000.8 mb) [Sea level pressure: 1000.9 mb]
Winds:calm
Visibility:10 or more sm (16+ km)
Ceiling:8500 feet AGL
Clouds: overcast cloud deck at 8500 feet AGL
QC Flag:automated observation with no human augmentation

METAR for:KPSC (Pasco/Tri Cities Arp, WA, US)
Text:KPSC 100900Z AUTO 27004KT 7SM SCT005 OVC060 M02/M04 A2963 RMK AO2 T10221039
Temperature: -2.2°C ( 28°F)
Dewpoint: -3.9°C ( 25°F) [RH = 88%]
Pressure (altimeter):29.63 inches Hg (1003.5 mb)
Winds:from the W (270 degrees) at 5 MPH (4 knots; 2.1 m/s)
Visibility: 7 sm ( 11 km)
Ceiling:6000 feet AGL
Clouds: scattered clouds at 500 feet AGL, overcast cloud deck at 6000 feet AGL
QC Flag:automated observation with no human augmentation
Text:KPSC 100853Z AUTO 28005KT 7SM BKN005 OVC065 M02/M04 A2963 RMK AO2 SLP039 60000 I3000 T10221039 56036
Temperature: -2.2°C ( 28°F)
Dewpoint: -3.9°C ( 25°F) [RH = 88%]
Pressure (altimeter):29.63 inches Hg (1003.5 mb) [Sea level pressure: 1003.9 mb]
Winds:from the W (280 degrees) at 6 MPH (5 knots; 2.6 m/s)
Visibility: 7 sm ( 11 km)
Ceiling:500 feet AGL
Clouds: broken clouds at 500 feet AGL, overcast cloud deck at 6500 feet AGL
QC Flag:automated observation with no human augmentation
Text:KPSC 100817Z AUTO 30003KT 6SM BR BKN006 BKN060 OVC090 M03/M04 A2964 RMK AO2 CIG 005V011 T10281044
Temperature: -2.8°C ( 27°F)
Dewpoint: -4.4°C ( 24°F) [RH = 89%]
Pressure (altimeter):29.64 inches Hg (1003.8 mb)
Winds:from the WNW (300 degrees) at 3 MPH (3 knots; 1.5 m/s)
Visibility: 6 sm ( 10 km)
Ceiling:600 feet AGL
Clouds: broken clouds at 600 feet AGL, broken clouds at 6000 feet AGL, overcast cloud deck at 9000 feet AGL
Weather:BR (mist)
QC Flag:automated observation with no human augmentation
Text:KPSC 100753Z AUTO 27006KT 6SM BR FEW008 SCT055 OVC080 M02/M04 A2966 RMK AO2 UPE07B11E46 SLP048 P0000 T10221044 410111100
Temperature: -2.2°C ( 28°F)
Dewpoint: -4.4°C ( 24°F) [RH = 85%]
Pressure (altimeter):29.66 inches Hg (1004.5 mb) [Sea level pressure: 1004.8 mb]
Winds:from the W (270 degrees) at 7 MPH (6 knots; 3.1 m/s)
Visibility: 6 sm ( 10 km)
Ceiling:8000 feet AGL
Clouds: few clouds at 800 feet AGL, scattered clouds at 5500 feet AGL, overcast cloud deck at 8000 feet AGL
Weather:BR (mist)
QC Flag:automated observation with no human augmentation
Text:KPSC 100732Z AUTO 29003KT 6SM UP BR SCT009 BKN055 OVC070 M02/M04 A2967 RMK AO2 UPE07B11 P0000 T10221039
Temperature: -2.2°C ( 28°F)
Dewpoint: -3.9°C ( 25°F) [RH = 88%]
Pressure (altimeter):29.67 inches Hg (1004.8 mb)
Winds:from the WNW (290 degrees) at 3 MPH (3 knots; 1.5 m/s)
Visibility: 6 sm ( 10 km)
Ceiling:5500 feet AGL
Clouds: scattered clouds at 900 feet AGL, broken clouds at 5500 feet AGL, overcast cloud deck at 7000 feet AGL
Weather:BR UP (mist, unknown precipitation)
QC Flag:automated observation with no human augmentation
Text:KPSC 100720Z AUTO 27005KT 7SM UP BKN010 BKN029 OVC070 M02/M04 A2969 RMK AO2 UPE07B11 P0000 T10221039
Temperature: -2.2°C ( 28°F)
Dewpoint: -3.9°C ( 25°F) [RH = 88%]
Pressure (altimeter):29.69 inches Hg (1005.5 mb)
Winds:from the W (270 degrees) at 6 MPH (5 knots; 2.6 m/s)
Visibility: 7 sm ( 11 km)
Ceiling:1000 feet AGL
Clouds: broken clouds at 1000 feet AGL, broken clouds at 2900 feet AGL, overcast cloud deck at 7000 feet AGL
Weather:UP (unknown precipitation)
QC Flag:automated observation with no human augmentation

METAR for:KHRI (Hermiston Muni, OR, US)
Text:KHRI 100853Z AUTO 10SM OVC070 08/00 A2956 RMK AO2 SLP012 60000 T00780000 56031
Temperature: 7.8°C ( 46°F)
Dewpoint: 0.0°C ( 32°F) [RH = 58%]
Pressure (altimeter):29.56 inches Hg (1001.1 mb) [Sea level pressure: 1001.2 mb]
Visibility:10 or more sm (16+ km)
Ceiling:7000 feet AGL
Clouds: overcast cloud deck at 7000 feet AGL
QC Flag:automated observation with no human augmentation
Text:KHRI 100753Z AUTO 12012KT 10SM OVC070 07/00 A2958 RMK AO2 PK WND 14027/0706 SLP020 T00670000 400671094
Temperature: 6.7°C ( 44°F)
Dewpoint: 0.0°C ( 32°F) [RH = 62%]
Pressure (altimeter):29.58 inches Hg (1001.8 mb) [Sea level pressure: 1002.0 mb]
Winds:from the ESE (120 degrees) at 14 MPH (12 knots; 6.2 m/s)
Visibility:10 or more sm (16+ km)
Ceiling:7000 feet AGL
Clouds: overcast cloud deck at 7000 feet AGL
QC Flag:automated observation with no human augmentation

METAR for:KGEG (Spokane Intl, WA, US)
Text:KGEG 100853Z 15011G19KT 1 1/2SM -SN VV008 00/M03 A2967 RMK AO2 SNB10 SLP067 P0000 60000 T00001033 58017 $
Temperature: 0.0°C ( 32°F)
Dewpoint: -3.3°C ( 26°F) [RH = 78%]
Pressure (altimeter):29.67 inches Hg (1004.8 mb) [Sea level pressure: 1006.7 mb]
Winds:from the SSE (150 degrees) at 13 MPH (11 knots; 5.7 m/s) gusting to 22 MPH (19 knots; 9.8 m/s)
Visibility: 1.50 sm ( 2.41 km)
Ceiling:indefinite ceiling with vertical visibility of 800 feet AGL
Clouds:obscured sky
Weather:-SN (light snow)
QC Flag:SOME DATA ABOVE MAY BE INACCURATE!!!"$" is an indication the sensor requires maintenance.
Text:KGEG 100839Z 15010G17KT 5SM -SN BKN025 BKN033 OVC041 00/M04 A2967 RMK AO2 SNB10 P0000 T00001044 $
Temperature: 0.0°C ( 32°F)
Dewpoint: -4.4°C ( 24°F) [RH = 72%]
Pressure (altimeter):29.67 inches Hg (1004.8 mb)
Winds:from the SSE (150 degrees) at 12 MPH (10 knots; 5.1 m/s) gusting to 20 MPH (17 knots; 8.7 m/s)
Visibility: 5 sm ( 8 km)
Ceiling:2500 feet AGL
Clouds: broken clouds at 2500 feet AGL, broken clouds at 3300 feet AGL, overcast cloud deck at 4100 feet AGL
Weather:-SN (light snow)
QC Flag:SOME DATA ABOVE MAY BE INACCURATE!!!"$" is an indication the sensor requires maintenance.
Text:KGEG 100810Z 13009KT 10SM -SN FEW040 OVC048 00/M04 A2968 RMK AO2 SNB10 P0000 T00001044 $
Temperature: 0.0°C ( 32°F)
Dewpoint: -4.4°C ( 24°F) [RH = 72%]
Pressure (altimeter):29.68 inches Hg (1005.2 mb)
Winds:from the SE (130 degrees) at 10 MPH (9 knots; 4.6 m/s)
Visibility:10 or more sm (16+ km)
Ceiling:4800 feet AGL
Clouds: few clouds at 4000 feet AGL, overcast cloud deck at 4800 feet AGL
Weather:-SN (light snow)
QC Flag:SOME DATA ABOVE MAY BE INACCURATE!!!"$" is an indication the sensor requires maintenance.
Text:KGEG 100753Z 12007KT 10SM OVC048 00/M04 A2969 RMK AO2 SLP075 T00001044 400061044 $
Temperature: 0.0°C ( 32°F)
Dewpoint: -4.4°C ( 24°F) [RH = 72%]
Pressure (altimeter):29.69 inches Hg (1005.5 mb) [Sea level pressure: 1007.5 mb]
Winds:from the ESE (120 degrees) at 8 MPH (7 knots; 3.6 m/s)
Visibility:10 or more sm (16+ km)
Ceiling:4800 feet AGL
Clouds: overcast cloud deck at 4800 feet AGL
QC Flag:SOME DATA ABOVE MAY BE INACCURATE!!!"$" is an indication the sensor requires maintenance.